Weather observations for the past three days for
Eureka Airport ASOS
Metric (Imperial)
Date Time (pdt) Wind (kph) Vis. (km) Weather Sky Cond. Temperature (ºC) Relative Humidity Wind Chill (°C) Heat Index (°C) Pressure Precipitation (cm)
Air Dwpt 6 hour altimeter (cm) sea level (mb) 1 hr 3 hr 6 hr
Max. Min.
02 06:53 S 19 0.00 NULL NULL 10 -9.4 25% 8 76.35 1010.9
02 05:53 S 7 0.00 NULL NULL 7.2 -8.9 31% 6 76.3 1010.3
02 04:53 SW 11 0.00 NULL NULL 12.2 -11.1 17.8 9.4 19% 76.23 1008.3
02 03:53 Vrbl 11 0.00 NULL NULL 11.7 -9.4 22% 76.2 1008.0
02 02:53 S 13 0.00 NULL NULL 14.4 -10 18% 76.17 1007.0
02 01:53 Vrbl 11 0.00 NULL NULL 16.1 -11.1 14% 76.17 1006.7
02 00:53 SW 7 0.00 NULL NULL 15 -10 17% 76.17 1007.4
01 23:53 E 7 0.00 NULL NULL 13.3 -6.1 26% 76.17 1007.8
01 22:53 SE 11 0.00 NULL NULL 15 -7.2 26.7 14.4 21% 76.15 1007.2
01 21:53 S 19 0.00 NULL NULL 16.1 -8.3 18% 76.15 1007.9
01 20:53 S 19 0.00 NULL NULL 16.7 -6.7 20% 76.15 1008.0
01 19:53 S 19 0.00 NULL NULL 17.8 -7.2 18% 76.1 1007.2
01 18:53 S 28 0.00 NULL NULL 23.3 -8.9 11% 76.07 1006.0
01 17:53 S 30 G 43 0.00 NULL NULL 25.6 -10 9% 25 76.07 1005.6
01 16:53 S 31 G 44 0.00 NULL NULL 26.1 -10.6 27.2 22.2 8% 25 76.07 1005.5
01 15:53 SW 31 G 46 0.00 NULL NULL 26.7 -11.7 7% 26 76.1 1005.8
01 14:53 S 33 G 46 0.00 Breezy NULL 26.7 -8.9 9% 26 76.12 1006.0
01 13:53 S 37 G 52 0.00 Breezy NULL 25.6 -9.4 9% 25 76.2 1007.2
01 12:53 S 37 G 52 0.00 Breezy NULL 25 -7.8 11% 24 76.25 1008.0
01 11:53 S 28 G 52 0.00 NULL NULL 23.3 -6.1 14% 76.33 1009.0
01 10:53 S 37 G 57 0.00 Breezy NULL 22.2 -2.8 22.2 14.4 19% 76.38 1009.9
01 08:53 S 28 0.00 NULL NULL 17.8 5 43% 76.38 1010.6
01 07:53 S 26 0.00 NULL NULL 16.7 5.6 48% 76.35 1010.6
01 06:53 S 20 0.00 NULL NULL 15.6 6.1 53% 76.33 1009.8
01 05:53 SE 20 0.00 NULL NULL 15.6 5 50% 76.33 1010.0
01 04:53 SE 24 0.00 NULL NULL 15 6.1 17.8 15 56% 76.3 1009.8
01 03:53 SE 26 0.00 NULL NULL 15.6 5.6 52% 76.33 1009.2
01 02:53 SE 17 0.00 NULL NULL 16.1 5 48% 76.3 1008.6
01 01:53 SE 17 0.00 NULL NULL 16.7 4.4 44% 76.28 1008.2
01 00:53 Calm 0.00 NULL NULL 17.2 3.9 41% 76.33 1008.9
31 23:53 SE 11 0.00 NULL NULL 17.2 3.9 41% 76.33 1008.9
31 22:53 SE 17 0.00 NULL NULL 17.8 4.4 22.2 16.7 41% 76.33 1009.3
31 21:53 SE 24 0.00 NULL NULL 18.3 4.4 40% 76.33 1010.1
31 20:53 SE 19 G 26 0.00 NULL NULL 18.3 4.4 40% 76.33 1010.3
31 19:53 SE 35 G 48 0.00 Breezy NULL 18.9 4.4 39% 76.25 1010.0
31 18:53 S 13 0.00 NULL NULL 21.7 3.3 30% 76.25 1010.0
31 17:53 S 22 G 46 0.00 NULL NULL 20.6 4.4 35% 76.35 1012.0
31 16:53 S 43 G 54 0.00 Windy NULL 21.7 3.3 26.7 21.7 30% 76.35 1011.8
31 15:53 S 17 G 33 0.00 NULL NULL 23.9 0 21% 24 76.28 1009.8
31 14:53 W 22 G 37 0.00 NULL NULL 25.6 1.7 21% 25 76.33 1010.2
31 13:53 S 28 G 46 0.00 NULL NULL 26.1 1.1 20% 26 76.35 1010.3
31 12:53 S 28 0.00 NULL NULL 24.4 1.1 22% 25 76.4 1011.4
31 11:53 SE 24 G 37 0.00 NULL NULL 24.4 -0.6 19% 25 76.43 1011.8
31 10:53 Vrbl 6 0.00 NULL NULL 21.7 -0.6 21.7 6.7 23% 76.48 1013.1
31 09:53 Calm 0.00 NULL NULL 18.3 -2.2 25% 76.5 1013.2
31 08:53 NE 7 0.00 NULL NULL 15.6 -1.1 32% 76.53 1013.8
31 07:53 NE 6 0.00 NULL NULL 12.8 2.8 51% 76.53 1013.9
31 06:53 Calm 0.00 NULL NULL 10 0.6 52% 76.5 1013.2
31 05:53 S 11 0.00 NULL NULL 8.3 0.6 59% 7 76.48 1012.5
31 04:53 Calm 0.00 NULL NULL 8.3 1.1 12.2 7.8 61% 76.48 1012.1
31 03:53 S 7 0.00 NULL NULL 10 0.6 52% 9 76.45 1011.6
31 02:53 S 7 0.00 NULL NULL 11.1 -0.6 45% 76.45 1011.4
31 01:53 S 11 0.00 NULL NULL 10 0.6 52% 9 76.45 1011.6
31 00:53 S 7 0.00 NULL NULL 10 0.6 52% 9 76.48 1012.3
30 23:53 S 9 0.00 NULL NULL 11.1 1.1 50% 76.5 1012.8
30 22:53 SE 11 0.00 NULL NULL 10.6 2.8 27.8 10.6 59% 76.5 1013.1
30 21:53 Calm 0.00 NULL NULL 15 1.1 39% 76.48 1012.4
30 20:53 NE 9 0.00 NULL NULL 15 1.7 41% 76.43 1011.9
30 19:53 NE 7 0.00 NULL NULL 17.8 1.1 33% 76.38 1011.4
30 18:53 N 15 0.00 NULL NULL 23.3 -1.1 20% 76.35 1010.6
30 17:53 Calm 0.00 NULL NULL 26.7 -6.1 11% 26 76.33 1009.9
30 16:53 Vrbl 7 0.00 NULL NULL 27.8 -7.2 27.8 21.7 9% 26 76.35 1009.9
30 15:53 SE 9 0.00 NULL NULL 27.2 -7.2 10% 26 76.38 1010.2
30 14:53 W 11 G 26 0.00 NULL NULL 26.7 -6.7 11% 26 76.43 1010.9
30 13:53 Calm 0.00 NULL NULL 26.1 -5 12% 25 76.48 1011.9
30 12:53 Vrbl 7 0.00 NULL NULL 25 -6.7 12% 25 76.53 1011.8
30 11:53 W 7 0.00 NULL NULL 23.3 -5.6 14% 76.56 1013.0
30 10:53 Vrbl 7 0.00 NULL NULL 22.2 -2.2 22.2 8.9 19% 76.58 1013.3
30 09:53 SW 7 0.00 NULL NULL 20.6 -1.1 23% 76.61 1013.5
30 08:53 Calm 0.00 NULL NULL 18.9 1.1 30% 76.61 1013.5
30 07:53 S 6 0.00 NULL NULL 15.6 4.4 48% 76.58 1013.7
Date Time (pdt) Wind (kph) Vis. (km) Weather Sky Cond. Air Dwpt Max. Min. Relative Humidity Wind Chill (°C) Heat Index (°C) altimeter (cm) sea level (mb) 1 hr 3 hr 6 hr
6 hour
Temperature (ºC) Pressure Precipitation (cm)